sensor_id;sensor_type;location;lat;lon;timestamp;P1;durP1;ratioP1;P2;durP2;ratioP2
39340;SDS011;25059;52.132;21.062;2023-07-24T06:00:22;0.20;;;0.20;;
39340;SDS011;25059;52.132;21.062;2023-07-24T06:03:09;0.20;;;0.20;;
39340;SDS011;25059;52.132;21.062;2023-07-24T06:05:54;0.13;;;0.13;;
39340;SDS011;25059;52.132;21.062;2023-07-24T06:08:39;0.10;;;0.10;;
39340;SDS011;25059;52.132;21.062;2023-07-24T06:11:23;0.10;;;0.10;;
39340;SDS011;25059;52.132;21.062;2023-07-24T06:14:10;0.20;;;0.20;;
39340;SDS011;25059;52.132;21.062;2023-07-24T06:16:55;0.17;;;0.17;;
39340;SDS011;25059;52.132;21.062;2023-07-24T06:19:39;0.10;;;0.10;;
39340;SDS011;25059;52.132;21.062;2023-07-24T06:22:24;0.10;;;0.10;;
39340;SDS011;25059;52.132;21.062;2023-07-24T06:25:08;0.10;;;0.10;;
39340;SDS011;25059;52.132;21.062;2023-07-24T06:27:53;0.10;;;0.10;;
39340;SDS011;25059;52.132;21.062;2023-07-24T06:30:38;0.20;;;0.20;;
39340;SDS011;25059;52.132;21.062;2023-07-24T06:33:23;0.10;;;0.10;;
39340;SDS011;25059;52.132;21.062;2023-07-24T06:36:09;0.10;;;0.10;;
39340;SDS011;25059;52.132;21.062;2023-07-24T06:38:54;0.10;;;0.10;;
39340;SDS011;25059;52.132;21.062;2023-07-24T06:41:40;0.20;;;0.20;;
39340;SDS011;25059;52.132;21.062;2023-07-24T06:44:24;0.10;;;0.10;;
39340;SDS011;25059;52.132;21.062;2023-07-24T06:47:09;0.10;;;0.10;;
39340;SDS011;25059;52.132;21.062;2023-07-24T06:49:53;0.10;;;0.10;;
39340;SDS011;25059;52.132;21.062;2023-07-24T06:52:38;0.10;;;0.10;;
39340;SDS011;25059;52.132;21.062;2023-07-24T06:55:23;0.10;;;0.10;;
39340;SDS011;25059;52.132;21.062;2023-07-24T06:58:07;0.10;;;0.10;;
39340;SDS011;25059;52.132;21.062;2023-07-24T07:00:51;0.10;;;0.10;;
39340;SDS011;25059;52.132;21.062;2023-07-24T07:03:36;0.10;;;0.10;;
39340;SDS011;25059;52.132;21.062;2023-07-24T07:06:20;0.10;;;0.10;;
39340;SDS011;25059;52.132;21.062;2023-07-24T07:09:05;0.10;;;0.10;;
39340;SDS011;25059;52.132;21.062;2023-07-24T07:11:50;0.10;;;0.10;;
39340;SDS011;25059;52.132;21.062;2023-07-24T07:14:34;0.10;;;0.10;;
39340;SDS011;25059;52.132;21.062;2023-07-24T07:17:20;0.20;;;0.20;;
39340;SDS011;25059;52.132;21.062;2023-07-24T07:20:05;0.10;;;0.10;;
39340;SDS011;25059;52.132;21.062;2023-07-24T07:22:50;0.10;;;0.10;;
39340;SDS011;25059;52.132;21.062;2023-07-24T07:25:35;0.10;;;0.10;;
39340;SDS011;25059;52.132;21.062;2023-07-24T07:28:19;0.20;;;0.20;;
39340;SDS011;25059;52.132;21.062;2023-07-24T07:31:04;0.10;;;0.10;;
39340;SDS011;25059;52.132;21.062;2023-07-24T07:33:49;0.10;;;0.10;;
39340;SDS011;25059;52.132;21.062;2023-07-24T07:36:34;0.10;;;0.10;;
39340;SDS011;25059;52.132;21.062;2023-07-24T07:39:18;0.10;;;0.10;;
39340;SDS011;25059;52.132;21.062;2023-07-24T07:42:03;0.10;;;0.10;;
39340;SDS011;25059;52.132;21.062;2023-07-24T07:44:47;0.10;;;0.10;;
39340;SDS011;25059;52.132;21.062;2023-07-24T07:47:32;0.10;;;0.10;;
39340;SDS011;25059;52.132;21.062;2023-07-24T07:50:16;0.10;;;0.10;;
39340;SDS011;25059;52.132;21.062;2023-07-24T07:53:02;0.10;;;0.10;;
39340;SDS011;25059;52.132;21.062;2023-07-24T07:55:54;0.10;;;0.10;;
39340;SDS011;25059;52.132;21.062;2023-07-24T07:58:40;0.10;;;0.10;;
39340;SDS011;25059;52.132;21.062;2023-07-24T08:01:25;0.10;;;0.10;;
39340;SDS011;25059;52.132;21.062;2023-07-24T08:04:09;0.15;;;0.15;;
39340;SDS011;25059;52.132;21.062;2023-07-24T08:06:54;0.10;;;0.10;;
39340;SDS011;25059;52.132;21.062;2023-07-24T08:09:39;0.10;;;0.10;;
39340;SDS011;25059;52.132;21.062;2023-07-24T08:12:24;0.10;;;0.10;;
39340;SDS011;25059;52.132;21.062;2023-07-24T08:15:09;0.10;;;0.10;;
39340;SDS011;25059;52.132;21.062;2023-07-24T08:17:54;0.10;;;0.10;;
39340;SDS011;25059;52.132;21.062;2023-07-24T08:20:39;0.10;;;0.10;;
39340;SDS011;25059;52.132;21.062;2023-07-24T08:23:26;0.10;;;0.10;;
39340;SDS011;25059;52.132;21.062;2023-07-24T08:29:52;0.10;;;0.10;;
39340;SDS011;25059;52.132;21.062;2023-07-24T08:32:36;0.10;;;0.10;;
39340;SDS011;25059;52.132;21.062;2023-07-24T08:35:21;0.10;;;0.10;;
39340;SDS011;25059;52.132;21.062;2023-07-24T08:38:06;0.10;;;0.10;;
39340;SDS011;25059;52.132;21.062;2023-07-24T08:40:59;0.10;;;0.10;;
39340;SDS011;25059;52.132;21.062;2023-07-24T08:43:52;0.10;;;0.10;;
39340;SDS011;25059;52.132;21.062;2023-07-24T08:46:38;0.10;;;0.10;;
39340;SDS011;25059;52.132;21.062;2023-07-24T08:49:25;0.00;;;0.00;;
39340;SDS011;25059;52.132;21.062;2023-07-24T08:52:11;0.10;;;0.10;;
39340;SDS011;25059;52.132;21.062;2023-07-24T08:54:55;0.00;;;0.00;;
39340;SDS011;25059;52.132;21.062;2023-07-24T08:57:42;0.10;;;0.10;;
39340;SDS011;25059;52.132;21.062;2023-07-24T09:00:27;0.10;;;0.10;;
39340;SDS011;25059;52.132;21.062;2023-07-24T09:03:12;0.10;;;0.10;;
39340;SDS011;25059;52.132;21.062;2023-07-24T09:05:56;0.10;;;0.10;;
39340;SDS011;25059;52.132;21.062;2023-07-24T09:08:42;0.15;;;0.15;;
39340;SDS011;25059;52.132;21.062;2023-07-24T09:11:27;0.20;;;0.20;;
39340;SDS011;25059;52.132;21.062;2023-07-24T09:14:19;0.20;;;0.20;;
39340;SDS011;25059;52.132;21.062;2023-07-24T09:17:07;0.10;;;0.10;;
39340;SDS011;25059;52.132;21.062;2023-07-24T09:19:56;0.20;;;0.20;;
39340;SDS011;25059;52.132;21.062;2023-07-24T09:22:56;0.10;;;0.10;;
39340;SDS011;25059;52.132;21.062;2023-07-24T09:25:42;0.10;;;0.10;;
39340;SDS011;25059;52.132;21.062;2023-07-24T09:31:14;0.20;;;0.20;;
39340;SDS011;25059;52.132;21.062;2023-07-24T09:33:59;0.20;;;0.20;;
39340;SDS011;25059;52.132;21.062;2023-07-24T09:36:43;0.20;;;0.20;;
39340;SDS011;25059;52.132;21.062;2023-07-24T09:39:31;0.10;;;0.10;;
39340;SDS011;25059;52.132;21.062;2023-07-24T09:42:16;0.20;;;0.20;;
39340;SDS011;25059;52.132;21.062;2023-07-24T09:45:02;0.30;;;0.30;;
39340;SDS011;25059;52.132;21.062;2023-07-24T09:47:46;0.10;;;0.10;;
39340;SDS011;25059;52.132;21.062;2023-07-24T09:50:32;0.10;;;0.10;;
39340;SDS011;25059;52.132;21.062;2023-07-24T09:53:20;0.10;;;0.10;;
39340;SDS011;25059;52.132;21.062;2023-07-24T09:56:08;0.10;;;0.10;;
39340;SDS011;25059;52.132;21.062;2023-07-24T09:58:56;0.20;;;0.20;;
39340;SDS011;25059;52.132;21.062;2023-07-24T10:01:43;0.20;;;0.20;;
39340;SDS011;25059;52.132;21.062;2023-07-24T10:04:28;0.30;;;0.30;;
39340;SDS011;25059;52.132;21.062;2023-07-24T10:07:13;0.20;;;0.20;;
39340;SDS011;25059;52.132;21.062;2023-07-24T10:09:58;0.20;;;0.20;;
39340;SDS011;25059;52.132;21.062;2023-07-24T10:12:42;0.20;;;0.20;;
39340;SDS011;25059;52.132;21.062;2023-07-24T10:15:28;0.30;;;0.30;;
39340;SDS011;25059;52.132;21.062;2023-07-24T10:18:15;0.30;;;0.30;;
39340;SDS011;25059;52.132;21.062;2023-07-24T10:21:02;0.20;;;0.20;;
39340;SDS011;25059;52.132;21.062;2023-07-24T10:23:48;0.20;;;0.20;;
39340;SDS011;25059;52.132;21.062;2023-07-24T10:26:33;0.28;;;0.28;;
39340;SDS011;25059;52.132;21.062;2023-07-24T10:29:19;0.30;;;0.30;;
39340;SDS011;25059;52.132;21.062;2023-07-24T10:32:04;0.30;;;0.30;;
39340;SDS011;25059;52.132;21.062;2023-07-24T10:35:08;0.40;;;0.40;;
39340;SDS011;25059;52.132;21.062;2023-07-24T10:38:01;0.20;;;0.20;;
39340;SDS011;25059;52.132;21.062;2023-07-24T10:40:47;0.30;;;0.30;;
39340;SDS011;25059;52.132;21.062;2023-07-24T10:46:34;0.30;;;0.30;;
39340;SDS011;25059;52.132;21.062;2023-07-24T10:49:27;0.30;;;0.30;;
39340;SDS011;25059;52.132;21.062;2023-07-24T10:52:11;0.20;;;0.20;;
39340;SDS011;25059;52.132;21.062;2023-07-24T10:54:56;0.30;;;0.30;;
39340;SDS011;25059;52.132;21.062;2023-07-24T10:57:40;0.22;;;0.22;;
39340;SDS011;25059;52.132;21.062;2023-07-24T11:00:25;0.20;;;0.20;;
39340;SDS011;25059;52.132;21.062;2023-07-24T11:03:11;0.20;;;0.20;;
39340;SDS011;25059;52.132;21.062;2023-07-24T11:05:58;0.17;;;0.17;;
39340;SDS011;25059;52.132;21.062;2023-07-24T11:08:58;0.20;;;0.20;;
39340;SDS011;25059;52.132;21.062;2023-07-24T11:11:44;0.30;;;0.30;;
39340;SDS011;25059;52.132;21.062;2023-07-24T11:14:29;0.30;;;0.30;;
39340;SDS011;25059;52.132;21.062;2023-07-24T11:17:13;0.30;;;0.30;;
39340;SDS011;25059;52.132;21.062;2023-07-24T11:20:14;0.28;;;0.28;;
39340;SDS011;25059;52.132;21.062;2023-07-24T11:22:59;0.40;;;0.40;;
39340;SDS011;25059;52.132;21.062;2023-07-24T11:25:44;0.60;;;0.60;;
39340;SDS011;25059;52.132;21.062;2023-07-24T11:28:29;0.70;;;0.70;;
39340;SDS011;25059;52.132;21.062;2023-07-24T11:31:24;0.82;;;0.82;;
39340;SDS011;25059;52.132;21.062;2023-07-24T11:34:09;0.70;;;0.70;;
39340;SDS011;25059;52.132;21.062;2023-07-24T11:36:54;0.60;;;0.60;;
39340;SDS011;25059;52.132;21.062;2023-07-24T11:39:39;0.90;;;0.90;;
39340;SDS011;25059;52.132;21.062;2023-07-24T11:42:25;0.80;;;0.80;;
39340;SDS011;25059;52.132;21.062;2023-07-24T11:45:10;0.73;;;0.73;;
39340;SDS011;25059;52.132;21.062;2023-07-24T11:47:55;0.70;;;0.70;;
39340;SDS011;25059;52.132;21.062;2023-07-24T11:50:42;0.80;;;0.80;;
39340;SDS011;25059;52.132;21.062;2023-07-24T11:53:31;0.90;;;0.90;;
39340;SDS011;25059;52.132;21.062;2023-07-24T11:56:16;1.27;;;1.27;;
39340;SDS011;25059;52.132;21.062;2023-07-24T11:59:18;1.40;;;1.40;;
39340;SDS011;25059;52.132;21.062;2023-07-24T12:02:03;1.60;;;1.60;;
39340;SDS011;25059;52.132;21.062;2023-07-24T12:04:53;1.50;;;1.50;;
39340;SDS011;25059;52.132;21.062;2023-07-24T12:07:44;1.20;;;1.20;;
39340;SDS011;25059;52.132;21.062;2023-07-24T12:10:30;1.08;;;1.08;;
39340;SDS011;25059;52.132;21.062;2023-07-24T12:13:15;0.75;;;0.75;;
39340;SDS011;25059;52.132;21.062;2023-07-24T12:15:59;0.80;;;0.80;;
39340;SDS011;25059;52.132;21.062;2023-07-24T12:18:44;0.77;;;0.77;;
39340;SDS011;25059;52.132;21.062;2023-07-24T12:21:28;0.68;;;0.68;;
39340;SDS011;25059;52.132;21.062;2023-07-24T12:24:13;0.90;;;0.90;;
39340;SDS011;25059;52.132;21.062;2023-07-24T12:26:57;0.93;;;0.93;;
39340;SDS011;25059;52.132;21.062;2023-07-24T12:29:42;1.27;;;1.27;;
39340;SDS011;25059;52.132;21.062;2023-07-24T12:36:07;1.00;;;1.00;;
39340;SDS011;25059;52.132;21.062;2023-07-24T12:38:52;0.60;;;0.60;;
39340;SDS011;25059;52.132;21.062;2023-07-24T12:41:36;0.80;;;0.80;;
39340;SDS011;25059;52.132;21.062;2023-07-24T12:44:21;0.70;;;0.70;;
39340;SDS011;25059;52.132;21.062;2023-07-24T12:47:05;0.90;;;0.90;;
39340;SDS011;25059;52.132;21.062;2023-07-24T12:49:50;0.90;;;0.90;;
39340;SDS011;25059;52.132;21.062;2023-07-24T12:52:36;0.80;;;0.80;;
39340;SDS011;25059;52.132;21.062;2023-07-24T12:55:21;0.77;;;0.77;;
39340;SDS011;25059;52.132;21.062;2023-07-24T12:58:05;0.90;;;0.90;;
39340;SDS011;25059;52.132;21.062;2023-07-24T13:00:50;0.80;;;0.80;;
39340;SDS011;25059;52.132;21.062;2023-07-24T13:03:34;0.73;;;0.73;;
39340;SDS011;25059;52.132;21.062;2023-07-24T13:06:19;0.80;;;0.80;;
39340;SDS011;25059;52.132;21.062;2023-07-24T13:09:03;0.60;;;0.60;;
39340;SDS011;25059;52.132;21.062;2023-07-24T13:11:48;0.60;;;0.60;;
39340;SDS011;25059;52.132;21.062;2023-07-24T13:14:35;0.80;;;0.80;;
39340;SDS011;25059;52.132;21.062;2023-07-24T13:17:19;0.85;;;0.85;;
39340;SDS011;25059;52.132;21.062;2023-07-24T13:20:04;1.00;;;1.00;;
39340;SDS011;25059;52.132;21.062;2023-07-24T13:22:49;1.10;;;1.10;;
39340;SDS011;25059;52.132;21.062;2023-07-24T13:25:33;0.98;;;0.98;;
39340;SDS011;25059;52.132;21.062;2023-07-24T13:28:18;0.85;;;0.85;;
39340;SDS011;25059;52.132;21.062;2023-07-24T13:31:18;0.90;;;0.90;;
39340;SDS011;25059;52.132;21.062;2023-07-24T13:34:04;0.73;;;0.73;;
39340;SDS011;25059;52.132;21.062;2023-07-24T13:36:48;0.70;;;0.70;;
39340;SDS011;25059;52.132;21.062;2023-07-24T13:39:33;0.50;;;0.50;;
39340;SDS011;25059;52.132;21.062;2023-07-24T13:42:18;0.20;;;0.20;;
39340;SDS011;25059;52.132;21.062;2023-07-24T13:45:03;0.30;;;0.30;;
39340;SDS011;25059;52.132;21.062;2023-07-24T13:47:47;0.30;;;0.30;;
39340;SDS011;25059;52.132;21.062;2023-07-24T13:50:31;0.30;;;0.30;;
39340;SDS011;25059;52.132;21.062;2023-07-24T13:53:16;0.40;;;0.40;;
39340;SDS011;25059;52.132;21.062;2023-07-24T13:56:01;0.20;;;0.20;;
39340;SDS011;25059;52.132;21.062;2023-07-24T13:58:45;0.35;;;0.35;;
39340;SDS011;25059;52.132;21.062;2023-07-24T14:01:30;0.50;;;0.50;;
39340;SDS011;25059;52.132;21.062;2023-07-24T14:04:15;0.30;;;0.30;;
39340;SDS011;25059;52.132;21.062;2023-07-24T14:07:00;0.50;;;0.50;;
39340;SDS011;25059;52.132;21.062;2023-07-24T14:09:44;0.40;;;0.40;;
39340;SDS011;25059;52.132;21.062;2023-07-24T14:12:29;0.30;;;0.30;;
39340;SDS011;25059;52.132;21.062;2023-07-24T14:15:13;0.55;;;0.55;;
39340;SDS011;25059;52.132;21.062;2023-07-24T14:17:58;0.60;;;0.60;;
39340;SDS011;25059;52.132;21.062;2023-07-24T14:20:43;0.30;;;0.30;;
39340;SDS011;25059;52.132;21.062;2023-07-24T14:23:27;0.32;;;0.32;;
39340;SDS011;25059;52.132;21.062;2023-07-24T14:26:12;0.38;;;0.38;;
39340;SDS011;25059;52.132;21.062;2023-07-24T14:28:56;0.45;;;0.45;;
39340;SDS011;25059;52.132;21.062;2023-07-24T14:31:41;0.38;;;0.38;;
39340;SDS011;25059;52.132;21.062;2023-07-24T14:34:26;0.38;;;0.38;;
39340;SDS011;25059;52.132;21.062;2023-07-24T14:37:11;0.40;;;0.40;;
39340;SDS011;25059;52.132;21.062;2023-07-24T14:39:55;0.30;;;0.30;;
39340;SDS011;25059;52.132;21.062;2023-07-24T14:42:40;0.30;;;0.30;;
39340;SDS011;25059;52.132;21.062;2023-07-24T14:45:25;0.40;;;0.40;;
39340;SDS011;25059;52.132;21.062;2023-07-24T14:48:10;0.32;;;0.32;;
39340;SDS011;25059;52.132;21.062;2023-07-24T14:50:56;0.40;;;0.40;;
39340;SDS011;25059;52.132;21.062;2023-07-24T14:53:42;0.30;;;0.30;;
39340;SDS011;25059;52.132;21.062;2023-07-24T14:56:26;0.32;;;0.32;;
39340;SDS011;25059;52.132;21.062;2023-07-24T14:59:11;0.40;;;0.40;;
39340;SDS011;25059;52.132;21.062;2023-07-24T15:01:55;0.30;;;0.30;;
39340;SDS011;25059;52.132;21.062;2023-07-24T15:04:42;0.40;;;0.40;;
39340;SDS011;25059;52.132;21.062;2023-07-24T15:07:26;0.40;;;0.40;;
39340;SDS011;25059;52.132;21.062;2023-07-24T15:10:11;0.40;;;0.40;;
39340;SDS011;25059;52.132;21.062;2023-07-24T15:12:55;0.40;;;0.40;;
39340;SDS011;25059;52.132;21.062;2023-07-24T15:15:40;0.30;;;0.30;;
39340;SDS011;25059;52.132;21.062;2023-07-24T15:18:25;0.30;;;0.30;;
39340;SDS011;25059;52.132;21.062;2023-07-24T15:21:09;0.30;;;0.30;;
39340;SDS011;25059;52.132;21.062;2023-07-24T15:23:54;0.30;;;0.30;;
39340;SDS011;25059;52.132;21.062;2023-07-24T15:26:39;0.30;;;0.30;;
39340;SDS011;25059;52.132;21.062;2023-07-24T15:29:23;0.30;;;0.30;;
